Grass Valley, Oregon
Current Conditions -  °F | °C
As of 7:53 AM on Sunday 21 Dec 2014 (Local Time) from KDLS Reporting Station
Overcast Overcast  
Wind Chill: 52°   Ceiling: 10000
Heat Index: 52°   Visibility: 10mi
Dew Point: 47°   Wind: 6mph
Humidity: 83%   Direction: 310°NW
Pressure: 29.88"   Gusts: NA
Location:  45.36°N, 120.79°W
Report Text: KDLS 211553Z AUTO 31005KT 10SM FEW055 FEW075 OVC100 11/08 A2988 RMK AO2 RAE06 SLP117 P0000 T01110083
Loading
Personal Weather Stations






























Interactive Weather Map New forecast layout! Learn more

10-Day Weather Forecast

Advertisements
Track Severe Weather on mobile